Time;durP1;ratioP1;P1;durP2;ratioP2;P2;SDS_P1;SDS_P2;PMS_P1;PMS_P2;Temp;Humidity;BMP_temperature;BMP_pressure;BME280_temperature;BME280_humidity;BME280_pressure;Samples;Min_cycle;Max_cycle;Signal;HPM_P1;HPM_P2
2022/03/24 00:00:27;;;;;;;16.27;4.80;;;;;;;;;;5073990;28;20204;-69
2022/03/24 00:02:55;;;;;;;19.40;4.15;;;;;;;;;;5073862;28;20236;-70
2022/03/24 00:05:22;;;;;;;16.83;3.60;;;;;;;;;;5073604;28;20237;-69
2022/03/24 00:07:49;;;;;;;19.67;3.80;;;;;;;;;;5073976;28;20573;-69
2022/03/24 00:10:17;;;;;;;19.05;4.18;;;;;;;;;;5074054;28;20621;-69
2022/03/24 00:12:50;;;;;;;15.27;3.20;;;;;;;;;;5074036;28;20647;-70
2022/03/24 00:15:17;;;;;;;18.10;3.45;;;;;;;;;;5073794;28;20255;-69
2022/03/24 00:17:45;;;;;;;16.13;3.90;;;;;;;;;;5073785;28;20208;-70
2022/03/24 00:20:13;;;;;;;15.50;3.00;;;;;;;;;;5073812;28;20209;-69
2022/03/24 00:22:40;;;;;;;16.77;3.45;;;;;;;;;;5073508;28;20798;-69
2022/03/24 00:25:08;;;;;;;22.40;4.85;;;;;;;;;;5073790;28;20669;-69
2022/03/24 00:27:36;;;;;;;22.40;4.53;;;;;;;;;;5073545;28;20209;-69
2022/03/24 00:30:08;;;;;;;22.52;4.85;;;;;;;;;;5073763;28;20283;-69
2022/03/24 00:32:35;;;;;;;17.70;3.92;;;;;;;;;;5073525;28;20205;-69
2022/03/24 00:35:02;;;;;;;16.13;3.85;;;;;;;;;;5073085;28;20209;-69
2022/03/24 00:37:31;;;;;;;15.73;3.33;;;;;;;;;;5073358;28;20208;-69
2022/03/24 00:40:00;;;;;;;15.73;3.28;;;;;;;;;;5073450;28;20205;-69
2022/03/24 00:42:27;;;;;;;16.25;3.53;;;;;;;;;;5073327;28;20228;-69
2022/03/24 00:44:55;;;;;;;15.50;3.22;;;;;;;;;;5073286;28;20593;-69
2022/03/24 00:47:26;;;;;;;19.70;3.83;;;;;;;;;;5073084;28;20300;-69
2022/03/24 00:49:54;;;;;;;18.58;3.30;;;;;;;;;;5067370;28;20266;-71
2022/03/24 00:52:21;;;;;;;20.25;4.32;;;;;;;;;;5073141;28;20212;-69
2022/03/24 00:54:49;;;;;;;16.35;3.28;;;;;;;;;;5073156;28;20223;-70
2022/03/24 00:57:16;;;;;;;17.85;4.18;;;;;;;;;;5072843;28;20205;-69
2022/03/24 00:59:44;;;;;;;17.58;4.18;;;;;;;;;;5072914;28;20286;-69
2022/03/24 01:02:11;;;;;;;19.35;3.67;;;;;;;;;;5072729;28;20232;-69
2022/03/24 01:04:41;;;;;;;19.48;3.70;;;;;;;;;;5072245;28;20673;-70
2022/03/24 01:07:09;;;;;;;16.23;3.60;;;;;;;;;;5072553;28;20321;-69
2022/03/24 01:09:36;;;;;;;18.15;4.65;;;;;;;;;;5072910;28;20212;-70
2022/03/24 01:12:05;;;;;;;18.77;4.43;;;;;;;;;;5072880;28;20212;-70
2022/03/24 01:14:35;;;;;;;19.70;3.67;;;;;;;;;;5073285;28;20224;-69
2022/03/24 01:17:04;;;;;;;22.92;3.70;;;;;;;;;;5072976;28;20209;-69
2022/03/24 01:19:32;;;;;;;16.92;4.25;;;;;;;;;;5072523;28;20209;-69
2022/03/24 01:22:03;;;;;;;16.92;3.75;;;;;;;;;;5072433;28;20256;-69
2022/03/24 01:24:31;;;;;;;17.55;3.80;;;;;;;;;;5072531;28;20201;-69
2022/03/24 01:26:58;;;;;;;17.70;4.72;;;;;;;;;;5072402;28;20205;-70
2022/03/24 01:29:26;;;;;;;19.33;3.63;;;;;;;;;;5072680;28;20212;-69
2022/03/24 01:31:53;;;;;;;20.65;4.05;;;;;;;;;;5072511;28;20222;-69
2022/03/24 01:34:21;;;;;;;17.35;3.83;;;;;;;;;;5072357;28;20654;-69
2022/03/24 01:36:48;;;;;;;19.20;3.60;;;;;;;;;;5065592;28;20231;-69
2022/03/24 01:39:18;;;;;;;15.25;3.15;;;;;;;;;;5072012;28;20209;-70
2022/03/24 01:41:46;;;;;;;18.55;4.22;;;;;;;;;;5072067;28;20225;-69
2022/03/24 01:44:14;;;;;;;16.15;3.45;;;;;;;;;;5072088;28;20307;-69
2022/03/24 01:46:56;;;;;;;18.83;4.05;;;;;;;;;;5072374;28;20669;-69
2022/03/24 01:49:24;;;;;;;17.92;3.35;;;;;;;;;;5071926;28;20208;-69
2022/03/24 01:51:51;;;;;;;18.60;3.63;;;;;;;;;;5072029;28;20692;-69
2022/03/24 01:54:22;;;;;;;16.50;3.00;;;;;;;;;;5071797;28;20300;-69
2022/03/24 01:56:51;;;;;;;22.17;3.00;;;;;;;;;;5072048;28;20213;-69
2022/03/24 01:59:19;;;;;;;13.95;3.25;;;;;;;;;;5071930;28;20208;-69
2022/03/24 02:01:47;;;;;;;16.70;3.45;;;;;;;;;;5071751;28;20232;-69
2022/03/24 02:04:16;;;;;;;15.32;2.90;;;;;;;;;;5071912;28;20212;-70
2022/03/24 02:06:44;;;;;;;17.15;3.35;;;;;;;;;;5071436;28;20240;-69
2022/03/24 02:09:12;;;;;;;18.70;3.53;;;;;;;;;;5071306;28;20208;-69
2022/03/24 02:11:42;;;;;;;17.73;3.45;;;;;;;;;;5071552;28;20601;-70
2022/03/24 02:14:09;;;;;;;15.30;3.22;;;;;;;;;;5071410;28;20233;-69
2022/03/24 02:16:38;;;;;;;14.60;3.92;;;;;;;;;;5071383;28;20210;-69
2022/03/24 02:19:13;;;;;;;17.25;3.95;;;;;;;;;;5071092;28;20258;-69
2022/03/24 02:21:41;;;;;;;18.73;3.75;;;;;;;;;;5071474;28;20227;-69
2022/03/24 02:24:10;;;;;;;18.05;2.88;;;;;;;;;;5071417;28;20208;-69
2022/03/24 02:26:40;;;;;;;21.38;4.80;;;;;;;;;;5071638;28;20569;-69
2022/03/24 02:29:08;;;;;;;17.83;3.80;;;;;;;;;;5071214;28;20205;-69
2022/03/24 02:31:38;;;;;;;15.05;3.42;;;;;;;;;;5071319;28;20256;-70
2022/03/24 02:36:51;;;;;;;21.42;3.90;;;;;;;;;;5071198;28;20216;-69
2022/03/24 02:39:20;;;;;;;15.75;3.63;;;;;;;;;;5070901;28;20251;-69
2022/03/24 02:41:48;;;;;;;18.67;4.00;;;;;;;;;;5071094;28;20220;-69
2022/03/24 02:44:17;;;;;;;15.85;3.10;;;;;;;;;;5070865;28;20208;-69
2022/03/24 02:46:44;;;;;;;18.73;3.88;;;;;;;;;;5070884;28;20208;-70
2022/03/24 02:49:12;;;;;;;16.65;3.50;;;;;;;;;;5070708;28;20208;-69
2022/03/24 02:51:39;;;;;;;17.35;3.25;;;;;;;;;;5071073;28;20205;-70
2022/03/24 02:54:07;;;;;;;18.02;3.70;;;;;;;;;;5070812;28;20208;-69
2022/03/24 02:56:36;;;;;;;18.27;3.95;;;;;;;;;;5070659;28;20676;-70
2022/03/24 02:59:06;;;;;;;23.02;3.72;;;;;;;;;;5071688;28;20212;-70
2022/03/24 03:01:34;;;;;;;15.20;3.42;;;;;;;;;;5071036;28;20669;-69
2022/03/24 03:04:01;;;;;;;17.67;3.20;;;;;;;;;;5070867;28;20212;-69
2022/03/24 03:06:29;;;;;;;14.00;3.00;;;;;;;;;;5063642;28;20749;-70
2022/03/24 03:08:56;;;;;;;15.38;3.65;;;;;;;;;;5070567;28;20677;-69
2022/03/24 03:11:24;;;;;;;17.52;4.00;;;;;;;;;;5070522;28;20684;-69
2022/03/24 03:13:53;;;;;;;16.55;3.47;;;;;;;;;;5070713;28;20220;-69
2022/03/24 03:16:20;;;;;;;18.25;4.07;;;;;;;;;;5070874;28;20648;-69
2022/03/24 03:18:48;;;;;;;15.63;3.20;;;;;;;;;;5070687;28;20200;-69
2022/03/24 03:21:17;;;;;;;16.33;3.63;;;;;;;;;;5070219;28;20209;-69
2022/03/24 03:23:45;;;;;;;18.73;3.67;;;;;;;;;;5070483;28;20236;-69
2022/03/24 03:26:15;;;;;;;15.52;3.33;;;;;;;;;;5070523;28;20213;-69
2022/03/24 03:28:42;;;;;;;17.92;3.65;;;;;;;;;;5066949;28;20208;-69
2022/03/24 03:31:11;;;;;;;15.98;4.05;;;;;;;;;;5076847;28;20208;-69
2022/03/24 03:33:38;;;;;;;19.90;4.00;;;;;;;;;;5077155;28;20207;-69
2022/03/24 03:36:07;;;;;;;16.08;2.83;;;;;;;;;;5076989;28;20204;-69
2022/03/24 03:38:34;;;;;;;18.60;3.50;;;;;;;;;;5077063;28;20204;-69
2022/03/24 03:41:02;;;;;;;17.38;3.67;;;;;;;;;;5077001;28;20628;-69
2022/03/24 03:43:30;;;;;;;16.15;4.05;;;;;;;;;;5076971;28;20236;-69
2022/03/24 03:45:57;;;;;;;15.93;3.70;;;;;;;;;;5077042;28;20204;-69
2022/03/24 03:48:26;;;;;;;23.98;3.90;;;;;;;;;;5077047;28;20203;-69
2022/03/24 03:50:54;;;;;;;16.98;3.38;;;;;;;;;;5076770;28;20200;-69
2022/03/24 03:53:23;;;;;;;18.40;3.75;;;;;;;;;;5076739;28;20215;-69
2022/03/24 03:55:51;;;;;;;16.02;3.20;;;;;;;;;;5076905;28;20247;-69
2022/03/24 03:58:18;;;;;;;16.17;3.50;;;;;;;;;;5077074;28;20291;-69
2022/03/24 04:00:55;;;;;;;20.23;4.00;;;;;;;;;;5077050;28;20208;-69
2022/03/24 04:03:24;;;;;;;22.35;4.90;;;;;;;;;;5076436;28;20242;-69
2022/03/24 04:05:53;;;;;;;20.15;3.72;;;;;;;;;;5076887;28;20293;-69
2022/03/24 04:08:21;;;;;;;14.88;3.40;;;;;;;;;;5076954;28;20208;-69
2022/03/24 04:10:50;;;;;;;21.85;3.78;;;;;;;;;;5076902;28;20939;-69
2022/03/24 04:13:18;;;;;;;25.20;4.40;;;;;;;;;;5076419;28;20209;-69
2022/03/24 04:15:47;;;;;;;23.48;3.75;;;;;;;;;;5076740;28;20211;-69
2022/03/24 04:18:14;;;;;;;15.43;3.65;;;;;;;;;;5069921;28;20299;-69
2022/03/24 04:20:42;;;;;;;17.45;3.25;;;;;;;;;;5076690;28;20681;-69
2022/03/24 04:23:11;;;;;;;16.13;3.17;;;;;;;;;;5076372;28;20250;-71
2022/03/24 04:25:39;;;;;;;17.48;3.65;;;;;;;;;;5076511;28;20235;-68
2022/03/24 04:28:07;;;;;;;17.38;3.55;;;;;;;;;;5076664;28;20323;-69
2022/03/24 04:30:35;;;;;;;14.80;3.58;;;;;;;;;;5076467;28;20212;-69
2022/03/24 04:33:04;;;;;;;14.55;3.30;;;;;;;;;;5076281;28;20219;-69
2022/03/24 04:35:32;;;;;;;16.35;3.05;;;;;;;;;;5076566;28;20197;-69
2022/03/24 04:38:00;;;;;;;17.00;3.50;;;;;;;;;;5076541;28;20277;-69
2022/03/24 04:40:28;;;;;;;19.63;4.00;;;;;;;;;;5066414;28;20700;-69
2022/03/24 04:42:56;;;;;;;18.65;4.57;;;;;;;;;;5073508;28;20716;-69
2022/03/24 04:45:26;;;;;;;23.38;4.57;;;;;;;;;;5073997;28;20204;-69
2022/03/24 04:47:54;;;;;;;16.08;3.90;;;;;;;;;;5073173;28;20208;-69
2022/03/24 04:50:21;;;;;;;16.90;3.08;;;;;;;;;;5073316;28;20585;-69
2022/03/24 04:52:49;;;;;;;20.00;3.30;;;;;;;;;;5073203;28;20204;-69
2022/03/24 04:55:17;;;;;;;19.50;4.90;;;;;;;;;;5072864;28;20282;-69
2022/03/24 04:57:46;;;;;;;19.88;4.03;;;;;;;;;;5073167;28;20255;-69
2022/03/24 05:00:15;;;;;;;19.55;4.15;;;;;;;;;;5073077;28;20216;-70
2022/03/24 05:02:44;;;;;;;21.05;5.18;;;;;;;;;;5072930;28;20228;-69
2022/03/24 05:05:11;;;;;;;20.33;4.45;;;;;;;;;;5072550;28;20752;-70
2022/03/24 05:07:39;;;;;;;19.50;4.55;;;;;;;;;;5072785;28;20205;-69
2022/03/24 05:10:07;;;;;;;19.42;4.70;;;;;;;;;;5072509;28;20209;-70
2022/03/24 05:12:34;;;;;;;22.85;6.47;;;;;;;;;;5072813;28;20210;-69
2022/03/24 05:15:05;;;;;;;22.20;4.90;;;;;;;;;;5072460;28;20243;-70
2022/03/24 05:17:32;;;;;;;38.13;4.90;;;;;;;;;;5072527;28;20697;-70
2022/03/24 05:20:01;;;;;;;15.45;4.18;;;;;;;;;;5072519;28;20213;-70
2022/03/24 05:22:28;;;;;;;19.45;4.47;;;;;;;;;;5072169;28;20209;-69
2022/03/24 05:24:56;;;;;;;19.25;4.90;;;;;;;;;;5072387;28;20724;-70
2022/03/24 05:27:23;;;;;;;21.63;4.35;;;;;;;;;;5072249;28;20212;-69
2022/03/24 05:29:51;;;;;;;18.38;4.88;;;;;;;;;;5072416;28;20270;-70
2022/03/24 05:32:20;;;;;;;27.00;10.03;;;;;;;;;;5072222;28;20222;-70
2022/03/24 05:34:48;;;;;;;53.07;13.67;;;;;;;;;;5072146;28;20450;-69
2022/03/24 05:37:17;;;;;;;28.13;8.43;;;;;;;;;;5071861;28;20872;-71
2022/03/24 05:39:44;;;;;;;19.53;5.60;;;;;;;;;;5072227;28;20451;-70
2022/03/24 05:42:12;;;;;;;20.73;4.47;;;;;;;;;;5072118;28;20446;-70
2022/03/24 05:44:39;;;;;;;18.47;4.87;;;;;;;;;;5071947;28;20486;-70
2022/03/24 05:47:08;;;;;;;19.07;5.00;;;;;;;;;;5065345;28;20628;-70
2022/03/24 05:49:37;;;;;;;22.67;6.87;;;;;;;;;;5071789;28;20443;-70
2022/03/24 05:52:05;;;;;;;21.83;5.93;;;;;;;;;;5071424;28;20451;-71
2022/03/24 05:54:33;;;;;;;31.63;8.40;;;;;;;;;;5072011;28;20542;-70
2022/03/24 05:57:00;;;;;;;24.03;7.07;;;;;;;;;;5071696;28;20458;-71
2022/03/24 05:59:28;;;;;;;21.30;5.43;;;;;;;;;;5071688;28;20454;-70
2022/03/24 06:01:55;;;;;;;25.90;6.40;;;;;;;;;;5071620;28;20458;-70
2022/03/24 06:04:23;;;;;;;17.80;5.53;;;;;;;;;;5071355;28;20505;-70
2022/03/24 06:06:56;;;;;;;30.17;10.57;;;;;;;;;;5071738;28;20501;-71
2022/03/24 06:09:23;;;;;;;20.33;5.90;;;;;;;;;;5065563;28;20542;-70
2022/03/24 06:11:53;;;;;;;30.57;9.70;;;;;;;;;;5071611;28;20482;-70
2022/03/24 06:14:20;;;;;;;21.37;6.73;;;;;;;;;;5071349;28;20476;-71
2022/03/24 06:16:49;;;;;;;22.73;5.53;;;;;;;;;;5071192;28;20916;-70
2022/03/24 06:19:16;;;;;;;19.77;5.67;;;;;;;;;;5071274;28;20444;-71
2022/03/24 06:21:44;;;;;;;21.53;4.80;;;;;;;;;;5071244;28;20455;-71
2022/03/24 06:24:13;;;;;;;30.37;8.20;;;;;;;;;;5071059;28;20490;-71
2022/03/24 06:26:40;;;;;;;18.60;5.10;;;;;;;;;;5071238;28;20443;-71
2022/03/24 06:29:10;;;;;;;21.63;5.10;;;;;;;;;;5070775;28;20458;-71
2022/03/24 06:31:38;;;;;;;18.60;5.13;;;;;;;;;;5071354;28;20452;-71
2022/03/24 06:34:05;;;;;;;31.20;5.80;;;;;;;;;;5071239;28;20894;-71
2022/03/24 06:36:33;;;;;;;23.27;5.47;;;;;;;;;;5070865;28;20459;-70
2022/03/24 06:39:00;;;;;;;19.10;5.67;;;;;;;;;;5070658;28;20953;-71
2022/03/24 06:41:29;;;;;;;20.10;4.97;;;;;;;;;;5070814;28;20508;-71
2022/03/24 06:43:57;;;;;;;18.87;4.70;;;;;;;;;;5070974;28;20490;-71
2022/03/24 06:46:25;;;;;;;19.73;5.57;;;;;;;;;;5070812;28;20877;-72
2022/03/24 06:48:53;;;;;;;19.37;5.07;;;;;;;;;;5070760;28;20460;-71
2022/03/24 06:51:20;;;;;;;21.87;6.10;;;;;;;;;;5070593;28;20464;-71
2022/03/24 06:53:48;;;;;;;19.50;5.20;;;;;;;;;;5070705;28;20464;-71
2022/03/24 06:56:15;;;;;;;25.23;5.23;;;;;;;;;;5070557;28;20470;-71
2022/03/24 06:58:44;;;;;;;20.07;5.67;;;;;;;;;;5070816;28;20560;-71
2022/03/24 07:01:11;;;;;;;18.67;4.80;;;;;;;;;;5070420;28;20468;-71
2022/03/24 07:03:42;;;;;;;20.07;4.73;;;;;;;;;;5070078;28;20485;-71
2022/03/24 07:06:09;;;;;;;27.37;5.27;;;;;;;;;;5070725;28;20486;-71
2022/03/24 07:08:37;;;;;;;20.37;4.27;;;;;;;;;;5070473;28;20457;-71
2022/03/24 07:11:04;;;;;;;21.13;4.50;;;;;;;;;;5070347;28;20802;-71
2022/03/24 07:13:32;;;;;;;17.57;5.70;;;;;;;;;;5070311;28;20470;-71
2022/03/24 07:16:02;;;;;;;16.60;4.30;;;;;;;;;;5070619;28;20451;-71
2022/03/24 07:18:29;;;;;;;17.37;4.40;;;;;;;;;;5070331;28;20442;-71
2022/03/24 07:20:57;;;;;;;18.60;4.80;;;;;;;;;;5070344;28;20945;-71
2022/03/24 07:23:25;;;;;;;18.97;4.83;;;;;;;;;;5070189;28;20494;-71
2022/03/24 07:25:52;;;;;;;19.93;5.40;;;;;;;;;;5070308;28;20459;-71
2022/03/24 07:28:19;;;;;;;23.10;4.83;;;;;;;;;;5070484;28;20469;-71
2022/03/24 07:30:50;;;;;;;17.97;4.97;;;;;;;;;;5070374;28;20443;-71
2022/03/24 07:33:20;;;;;;;20.20;5.20;;;;;;;;;;5070159;28;20489;-71
2022/03/24 07:35:47;;;;;;;27.43;6.00;;;;;;;;;;5070572;28;20450;-71
2022/03/24 07:38:16;;;;;;;20.73;4.80;;;;;;;;;;5070681;28;20533;-72
2022/03/24 07:40:43;;;;;;;17.13;4.83;;;;;;;;;;5063294;28;20462;-71
2022/03/24 07:43:11;;;;;;;18.83;4.63;;;;;;;;;;5069971;28;20826;-71
2022/03/24 07:45:38;;;;;;;20.43;5.00;;;;;;;;;;5070107;28;20625;-71
2022/03/24 07:48:10;;;;;;;18.73;6.13;;;;;;;;;;5070127;28;20531;-71
2022/03/24 07:50:40;;;;;;;21.23;6.00;;;;;;;;;;5070061;28;20453;-71
2022/03/24 07:53:19;;;;;;;20.57;6.13;;;;;;;;;;5069874;28;20533;-71
2022/03/24 07:55:47;;;;;;;27.33;5.27;;;;;;;;;;5070186;28;20463;-71
2022/03/24 07:58:15;;;;;;;20.27;5.20;;;;;;;;;;5070050;28;20450;-71
2022/03/24 08:00:43;;;;;;;19.83;5.57;;;;;;;;;;5070149;28;20447;-71
2022/03/24 08:03:11;;;;;;;24.47;5.77;;;;;;;;;;5069882;28;20512;-71
2022/03/24 08:05:40;;;;;;;22.90;6.33;;;;;;;;;;5070022;28;20482;-72
2022/03/24 08:08:09;;;;;;;17.20;5.30;;;;;;;;;;5070096;28;20535;-71
2022/03/24 08:10:37;;;;;;;19.90;5.33;;;;;;;;;;5070180;28;20462;-71
2022/03/24 08:13:05;;;;;;;19.33;5.13;;;;;;;;;;5069694;28;20458;-72
2022/03/24 08:15:33;;;;;;;20.83;5.27;;;;;;;;;;5072379;28;20466;-71
2022/03/24 08:18:01;;;;;;;24.63;6.90;;;;;;;;;;5073806;28;20528;-72
2022/03/24 08:20:28;;;;;;;22.63;6.70;;;;;;;;;;5073533;28;20974;-72
2022/03/24 08:22:57;;;;;;;23.27;7.93;;;;;;;;;;5073430;28;20478;-72
2022/03/24 08:25:25;;;;;;;26.70;6.93;;;;;;;;;;5073521;28;20489;-71
2022/03/24 08:27:52;;;;;;;21.30;5.77;;;;;;;;;;5073300;28;20451;-71
2022/03/24 08:30:21;;;;;;;34.43;6.27;;;;;;;;;;5073628;28;20460;-72
2022/03/24 08:32:48;;;;;;;16.57;5.50;;;;;;;;;;5073237;28;20982;-71
2022/03/24 08:35:16;;;;;;;19.87;5.80;;;;;;;;;;5073302;28;20454;-71
2022/03/24 08:37:43;;;;;;;26.87;6.17;;;;;;;;;;5073181;28;20447;-71
2022/03/24 08:40:12;;;;;;;27.47;7.20;;;;;;;;;;5073199;28;20467;-71
2022/03/24 08:42:41;;;;;;;21.63;7.07;;;;;;;;;;5073175;28;20463;-72
2022/03/24 08:45:09;;;;;;;21.97;6.93;;;;;;;;;;5073176;28;20482;-71
2022/03/24 08:47:37;;;;;;;24.40;7.53;;;;;;;;;;5073357;28;20463;-71
2022/03/24 08:50:06;;;;;;;23.80;7.67;;;;;;;;;;5073173;28;20462;-71
2022/03/24 08:52:33;;;;;;;25.13;6.73;;;;;;;;;;5073389;28;20445;-71
2022/03/24 08:55:01;;;;;;;20.00;6.23;;;;;;;;;;5072594;28;20455;-71
2022/03/24 08:57:29;;;;;;;21.50;6.20;;;;;;;;;;5072893;28;20813;-71
2022/03/24 08:59:57;;;;;;;24.43;7.60;;;;;;;;;;5072839;28;20937;-71
2022/03/24 09:02:25;;;;;;;20.23;5.60;;;;;;;;;;5072996;28;20459;-71
2022/03/24 09:04:53;;;;;;;22.20;5.80;;;;;;;;;;5072437;28;20509;-71
2022/03/24 09:07:21;;;;;;;20.20;5.20;;;;;;;;;;5072466;28;20831;-71
2022/03/24 09:09:48;;;;;;;20.70;5.87;;;;;;;;;;5072539;28;20451;-71
2022/03/24 09:12:16;;;;;;;25.90;5.70;;;;;;;;;;5072915;28;20447;-72
2022/03/24 09:14:44;;;;;;;20.30;5.87;;;;;;;;;;5072746;28;20512;-71
2022/03/24 09:17:12;;;;;;;23.10;5.83;;;;;;;;;;5072262;28;20451;-71
2022/03/24 09:19:39;;;;;;;19.10;5.57;;;;;;;;;;5072405;28;20447;-71
2022/03/24 09:22:08;;;;;;;23.33;6.20;;;;;;;;;;5072280;28;20451;-71
2022/03/24 09:24:36;;;;;;;30.80;6.57;;;;;;;;;;5072496;28;20491;-71
2022/03/24 09:27:05;;;;;;;22.93;5.83;;;;;;;;;;5071593;28;20447;-71
2022/03/24 09:29:32;;;;;;;24.70;5.90;;;;;;;;;;5072205;28;20956;-71
2022/03/24 09:32:01;;;;;;;21.33;6.10;;;;;;;;;;5072180;28;20462;-71
2022/03/24 09:34:29;;;;;;;22.40;5.80;;;;;;;;;;5072159;28;20455;-71
2022/03/24 09:36:56;;;;;;;24.30;6.23;;;;;;;;;;5072127;28;20451;-71
2022/03/24 09:39:25;;;;;;;20.63;5.60;;;;;;;;;;5072293;28;20451;-71
2022/03/24 09:41:53;;;;;;;21.27;5.83;;;;;;;;;;5072423;28;20810;-71
2022/03/24 09:44:21;;;;;;;23.17;5.97;;;;;;;;;;5071884;28;20482;-71
2022/03/24 09:46:48;;;;;;;22.13;6.07;;;;;;;;;;5071896;28;20835;-71
2022/03/24 09:49:17;;;;;;;20.17;5.50;;;;;;;;;;5071852;28;20439;-71
2022/03/24 09:51:45;;;;;;;22.37;5.87;;;;;;;;;;5071807;28;20832;-71
2022/03/24 09:54:13;;;;;;;19.40;5.60;;;;;;;;;;5071801;28;20447;-71
2022/03/24 09:56:41;;;;;;;21.93;5.80;;;;;;;;;;5072020;28;20537;-71
2022/03/24 09:59:09;;;;;;;21.93;5.70;;;;;;;;;;5071456;28;20448;-71
2022/03/24 10:01:39;;;;;;;21.23;5.30;;;;;;;;;;5071572;28;20463;-71
2022/03/24 10:04:07;;;;;;;21.30;6.07;;;;;;;;;;5071675;28;20612;-71
2022/03/24 10:06:37;;;;;;;18.13;5.33;;;;;;;;;;5071619;28;20839;-71
2022/03/24 10:09:05;;;;;;;19.27;5.40;;;;;;;;;;5071468;28;20442;-71
2022/03/24 10:11:35;;;;;;;20.87;5.30;;;;;;;;;;5071524;28;20447;-71
2022/03/24 10:14:05;;;;;;;19.80;6.07;;;;;;;;;;5071324;28;20479;-71
2022/03/24 10:16:41;;;;;;;24.10;6.33;;;;;;;;;;5071305;28;20830;-71
2022/03/24 10:19:09;;;;;;;20.60;6.63;;;;;;;;;;5071228;28;20445;-71
2022/03/24 10:21:39;;;;;;;20.30;5.53;;;;;;;;;;5071143;28;20536;-71
2022/03/24 10:24:10;;;;;;;18.93;5.67;;;;;;;;;;5071156;28;20448;-71
2022/03/24 10:26:45;;;;;;;22.57;5.93;;;;;;;;;;5070969;28;20451;-71
2022/03/24 10:29:14;;;;;;;28.60;6.40;;;;;;;;;;5071017;28;20460;-71
2022/03/24 10:31:43;;;;;;;19.50;6.67;;;;;;;;;;5071311;28;20473;-71
2022/03/24 10:34:11;;;;;;;21.77;5.93;;;;;;;;;;5071101;28;20493;-71
2022/03/24 10:36:42;;;;;;;23.50;5.87;;;;;;;;;;5070867;28;20498;-71
2022/03/24 10:39:10;;;;;;;19.67;6.20;;;;;;;;;;5069759;28;20714;-71
2022/03/24 10:41:38;;;;;;;21.70;6.33;;;;;;;;;;5071068;28;20443;-71
2022/03/24 10:44:07;;;;;;;23.90;5.13;;;;;;;;;;5070762;28;20941;-71
2022/03/24 10:46:36;;;;;;;15.70;4.10;;;;;;;;;;5070892;28;20542;-71
2022/03/24 10:49:16;;;;;;;24.63;6.40;;;;;;;;;;5070518;28;20449;-71
2022/03/24 10:51:46;;;;;;;20.20;5.60;;;;;;;;;;5070671;28;20515;-71
2022/03/24 10:54:19;;;;;;;18.37;5.80;;;;;;;;;;5070653;28;20468;-71
2022/03/24 10:56:48;;;;;;;19.43;5.20;;;;;;;;;;5071068;28;20514;-71
2022/03/24 10:59:15;;;;;;;21.43;5.37;;;;;;;;;;5070609;28;20459;-71
2022/03/24 11:01:43;;;;;;;19.10;4.27;;;;;;;;;;5070732;28;20535;-71
2022/03/24 11:04:10;;;;;;;20.90;5.63;;;;;;;;;;5070359;28;20456;-71
2022/03/24 11:06:48;;;;;;;22.80;5.10;;;;;;;;;;5063568;28;20488;-71
2022/03/24 11:09:24;;;;;;;20.33;5.60;;;;;;;;;;5064499;28;20469;-71
2022/03/24 11:12:20;;;;;;;17.83;5.27;;;;;;;;;;5070663;28;20452;-71
2022/03/24 11:14:50;;;;;;;21.57;6.20;;;;;;;;;;5070192;28;20982;-71
2022/03/24 11:17:18;;;;;;;16.77;5.30;;;;;;;;;;5070119;28;20453;-71
2022/03/24 11:19:51;;;;;;;28.23;6.97;;;;;;;;;;5070335;28;20869;-71
2022/03/24 11:22:18;;;;;;;18.07;5.23;;;;;;;;;;5070497;28;20460;-71
2022/03/24 11:24:47;;;;;;;22.57;5.57;;;;;;;;;;5070202;28;20490;-71
2022/03/24 11:27:17;;;;;;;18.13;5.53;;;;;;;;;;5070077;28;20450;-71
2022/03/24 11:29:44;;;;;;;16.80;4.20;;;;;;;;;;5070336;28;21043;-71
2022/03/24 11:32:12;;;;;;;18.63;4.43;;;;;;;;;;5070383;28;20459;-71
2022/03/24 11:34:41;;;;;;;17.00;4.60;;;;;;;;;;5070416;28;20545;-71
2022/03/24 11:37:09;;;;;;;18.17;5.23;;;;;;;;;;5069969;28;20443;-71
2022/03/24 11:39:36;;;;;;;17.10;5.20;;;;;;;;;;5070071;28;20495;-71
2022/03/24 11:42:05;;;;;;;17.90;5.10;;;;;;;;;;5070484;28;20526;-70
2022/03/24 11:44:40;;;;;;;19.33;5.23;;;;;;;;;;5070049;28;20549;-71
2022/03/24 11:47:13;;;;;;;20.87;5.63;;;;;;;;;;5070071;28;20459;-71
2022/03/24 11:49:41;;;;;;;20.50;5.97;;;;;;;;;;5071495;28;20472;-71
2022/03/24 11:52:27;;;;;;;19.90;5.30;;;;;;;;;;5074043;28;20524;-70
2022/03/24 11:54:57;;;;;;;22.00;7.17;;;;;;;;;;5074139;28;20459;-71
2022/03/24 11:57:31;;;;;;;19.80;5.67;;;;;;;;;;5074196;28;20450;-71
2022/03/24 12:00:17;;;;;;;17.40;5.20;;;;;;;;;;5074127;28;20454;-71
2022/03/24 12:02:46;;;;;;;20.60;6.10;;;;;;;;;;5074230;28;20435;-71
2022/03/24 12:05:17;;;;;;;20.30;6.33;;;;;;;;;;5073381;28;21103;-73
2022/03/24 12:07:45;;;;;;;18.60;5.73;;;;;;;;;;5073867;28;20457;-71
2022/03/24 12:10:14;;;;;;;20.27;6.00;;;;;;;;;;5073726;28;20809;-71
2022/03/24 12:13:01;;;;;;;19.73;6.07;;;;;;;;;;5073901;28;20464;-71
2022/03/24 12:15:28;;;;;;;20.73;5.50;;;;;;;;;;5073788;28;20472;-71
2022/03/24 12:18:03;;;;;;;19.87;5.53;;;;;;;;;;5074056;28;20548;-72
2022/03/24 12:20:41;;;;;;;22.67;5.80;;;;;;;;;;5073778;28;20445;-71
2022/03/24 12:23:08;;;;;;;20.00;5.60;;;;;;;;;;5073318;28;20835;-71
2022/03/24 12:25:36;;;;;;;20.63;6.40;;;;;;;;;;5073284;28;21099;-71
2022/03/24 12:28:09;;;;;;;24.73;6.17;;;;;;;;;;5073565;28;21021;-71
2022/03/24 12:30:44;;;;;;;21.33;7.13;;;;;;;;;;5073540;28;20457;-72
2022/03/24 12:33:13;;;;;;;18.90;6.50;;;;;;;;;;5073069;28;20457;-71
2022/03/24 12:35:42;;;;;;;20.30;6.10;;;;;;;;;;5073163;28;20474;-71
2022/03/24 12:38:22;;;;;;;21.40;5.80;;;;;;;;;;5073458;28;20442;-71
2022/03/24 12:41:04;;;;;;;18.63;5.70;;;;;;;;;;5073324;28;20850;-71
2022/03/24 12:43:40;;;;;;;20.20;5.43;;;;;;;;;;5060768;28;20450;-71
2022/03/24 12:46:20;;;;;;;16.67;6.00;;;;;;;;;;5073035;28;20492;-71
2022/03/24 12:48:47;;;;;;;19.17;6.23;;;;;;;;;;5073318;28;20454;-71
2022/03/24 12:51:17;;;;;;;20.43;6.17;;;;;;;;;;5073063;28;20487;-71
2022/03/24 12:53:52;;;;;;;18.47;5.67;;;;;;;;;;5073138;28;20443;-71
2022/03/24 12:56:26;;;;;;;23.20;5.87;;;;;;;;;;5072857;28;20954;-71
2022/03/24 12:58:56;;;;;;;19.23;6.37;;;;;;;;;;5072814;28;20950;-71
2022/03/24 13:01:24;;;;;;;18.30;6.40;;;;;;;;;;5071737;28;20453;-71
2022/03/24 13:03:56;;;;;;;20.90;6.10;;;;;;;;;;5072872;28;20454;-71
2022/03/24 13:06:24;;;;;;;18.40;5.63;;;;;;;;;;5072542;28;20491;-71
2022/03/24 13:09:14;;;;;;;23.30;7.20;;;;;;;;;;5072744;28;20982;-71
2022/03/24 13:11:54;;;;;;;17.90;5.90;;;;;;;;;;5072914;28;20505;-71
2022/03/24 13:14:24;;;;;;;22.40;6.10;;;;;;;;;;5072498;28;20479;-71
2022/03/24 13:17:01;;;;;;;21.23;5.87;;;;;;;;;;5072522;28;20979;-71
2022/03/24 13:19:29;;;;;;;22.00;5.67;;;;;;;;;;5072362;28;20454;-72
2022/03/24 13:21:58;;;;;;;20.17;6.00;;;;;;;;;;5072422;28;20893;-71
2022/03/24 13:24:25;;;;;;;20.10;5.90;;;;;;;;;;5072455;28;20506;-71
2022/03/24 13:26:59;;;;;;;21.33;6.13;;;;;;;;;;5072221;28;20540;-71
2022/03/24 13:29:38;;;;;;;18.00;5.30;;;;;;;;;;5072212;28;20954;-72
2022/03/24 13:32:10;;;;;;;19.00;5.90;;;;;;;;;;5072194;28;20522;-72
2022/03/24 13:34:37;;;;;;;21.83;6.70;;;;;;;;;;5072370;28;20466;-71
2022/03/24 13:37:12;;;;;;;21.93;6.33;;;;;;;;;;5072164;28;20459;-71
2022/03/24 13:39:40;;;;;;;19.70;5.83;;;;;;;;;;5066434;28;20955;-71
2022/03/24 13:42:10;;;;;;;19.83;6.43;;;;;;;;;;5072186;28;20446;-71
2022/03/24 13:44:39;;;;;;;20.30;5.70;;;;;;;;;;5071862;28;20460;-71
2022/03/24 13:47:07;;;;;;;20.30;5.30;;;;;;;;;;5071896;28;20893;-71
2022/03/24 13:49:35;;;;;;;19.13;6.23;;;;;;;;;;5071944;28;20441;-71
2022/03/24 13:52:02;;;;;;;22.70;6.40;;;;;;;;;;5071923;28;20443;-71
2022/03/24 13:54:30;;;;;;;18.23;6.07;;;;;;;;;;5071872;28;20450;-71
2022/03/24 13:56:58;;;;;;;20.53;6.03;;;;;;;;;;5071716;28;20463;-71
2022/03/24 13:59:31;;;;;;;22.83;5.97;;;;;;;;;;5071614;28;20454;-71
2022/03/24 14:02:00;;;;;;;18.47;6.67;;;;;;;;;;5071936;28;20447;-71
2022/03/24 14:04:27;;;;;;;17.63;5.83;;;;;;;;;;5071651;28;20955;-72
2022/03/24 14:07:05;;;;;;;22.43;5.60;;;;;;;;;;5071569;28;20498;-71
2022/03/24 14:09:33;;;;;;;24.77;5.97;;;;;;;;;;5071436;28;20462;-71
2022/03/24 14:12:04;;;;;;;24.13;6.10;;;;;;;;;;5065039;28;20906;-72
2022/03/24 14:14:31;;;;;;;19.70;6.13;;;;;;;;;;5071473;28;20816;-71
2022/03/24 14:17:00;;;;;;;18.37;6.10;;;;;;;;;;5071529;28;20445;-71
2022/03/24 14:19:28;;;;;;;19.93;5.77;;;;;;;;;;5071363;28;20460;-71
2022/03/24 14:22:01;;;;;;;21.33;6.13;;;;;;;;;;5071313;28;20541;-71
2022/03/24 14:24:37;;;;;;;20.03;5.90;;;;;;;;;;5071427;28;20439;-71
2022/03/24 14:27:06;;;;;;;18.50;5.93;;;;;;;;;;5071179;28;20485;-71
2022/03/24 14:29:34;;;;;;;19.47;5.47;;;;;;;;;;5071228;28;20449;-71
2022/03/24 14:32:17;;;;;;;32.07;5.73;;;;;;;;;;5071240;28;20459;-71
2022/03/24 14:34:44;;;;;;;21.40;6.03;;;;;;;;;;5071017;28;20480;-71
2022/03/24 14:37:13;;;;;;;18.70;5.50;;;;;;;;;;5071068;28;20481;-71
2022/03/24 14:39:47;;;;;;;19.53;5.90;;;;;;;;;;5071214;28;20464;-71
2022/03/24 14:42:15;;;;;;;19.40;5.77;;;;;;;;;;5070924;28;20467;-71
2022/03/24 14:44:42;;;;;;;20.50;5.20;;;;;;;;;;5070830;28;20445;-71